createdAt,value
2023-04-26T00:00:48.174Z,100882.08
2023-04-26T00:03:15.115Z,100882.20
2023-04-26T00:05:42.792Z,100883.02
2023-04-26T00:08:10.362Z,100881.23
2023-04-26T00:10:37.266Z,100883.80
2023-04-26T00:13:04.319Z,100883.36
2023-04-26T00:15:32.218Z,100887.98
2023-04-26T00:17:59.283Z,100880.91
2023-04-26T00:20:25.845Z,100883.23
2023-04-26T00:22:53.137Z,100884.16
2023-04-26T00:25:19.789Z,100882.41
2023-04-26T00:27:46.478Z,100879.98
2023-04-26T00:30:13.716Z,100882.11
2023-04-26T00:32:40.392Z,100884.76
2023-04-26T00:35:07.744Z,100886.26
2023-04-26T00:37:34.627Z,100885.20
2023-04-26T00:40:01.576Z,100884.18
2023-04-26T00:42:28.776Z,100883.91
2023-04-26T00:44:57.893Z,100886.86
2023-04-26T00:47:25.992Z,100884.43
2023-04-26T00:49:53.198Z,100881.23
2023-04-26T00:52:19.861Z,100880.65
2023-04-26T00:54:48.890Z,100885.06
2023-04-26T00:57:15.980Z,100882.69
2023-04-26T00:59:43.323Z,100884.33
2023-04-26T01:02:10.023Z,100887.95
2023-04-26T01:04:37.438Z,100888.19
2023-04-26T01:07:04.420Z,100889.86
2023-04-26T01:09:32.237Z,100889.99
2023-04-26T01:12:00.528Z,100899.52
2023-04-26T01:14:27.492Z,100900.06
2023-04-26T01:16:54.464Z,100898.58
2023-04-26T01:19:21.470Z,100900.41
2023-04-26T01:21:48.167Z,100902.20
2023-04-26T01:24:15.077Z,100905.23
2023-04-26T01:26:48.108Z,100898.92
2023-04-26T01:29:20.074Z,100903.25
2023-04-26T01:31:47.664Z,100903.39
2023-04-26T01:34:15.095Z,100904.92
2023-04-26T01:36:41.791Z,100909.54
2023-04-26T01:39:09.343Z,100907.91
2023-04-26T01:41:35.866Z,100906.59
2023-04-26T01:44:02.664Z,100908.38
2023-04-26T01:46:29.527Z,100904.87
2023-04-26T01:48:57.365Z,100910.42
2023-04-26T01:51:24.329Z,100912.68
2023-04-26T01:53:51.020Z,100915.45
2023-04-26T01:56:18.473Z,100918.44
2023-04-26T01:58:45.888Z,100912.73
2023-04-26T02:01:12.535Z,100913.07
2023-04-26T02:03:39.463Z,100914.10
2023-04-26T02:06:06.406Z,100911.92
2023-04-26T02:08:33.534Z,100912.87
2023-04-26T02:11:00.202Z,100912.14
2023-04-26T02:13:26.904Z,100911.52
2023-04-26T02:15:53.862Z,100913.34
2023-04-26T02:18:22.056Z,100914.77
2023-04-26T02:20:49.280Z,100915.30
2023-04-26T02:23:15.940Z,100913.04
2023-04-26T02:25:46.697Z,100912.65
2023-04-26T02:28:13.712Z,100909.88
2023-04-26T02:30:40.640Z,100910.26
2023-04-26T02:33:07.844Z,100913.13
2023-04-26T02:35:36.312Z,100911.42
2023-04-26T02:38:03.802Z,100917.06
2023-04-26T02:40:30.633Z,100918.62
2023-04-26T02:42:57.714Z,100922.46
2023-04-26T02:45:24.426Z,100918.77
2023-04-26T02:47:51.179Z,100915.40
2023-04-26T02:50:17.873Z,100915.20
2023-04-26T02:52:44.564Z,100918.69
2023-04-26T02:55:11.406Z,100919.29
2023-04-26T02:57:38.262Z,100920.04
2023-04-26T03:00:05.577Z,100916.87
2023-04-26T03:02:32.716Z,100912.67
2023-04-26T03:04:59.579Z,100911.73
2023-04-26T03:07:26.459Z,100911.43
2023-04-26T03:09:52.989Z,100912.48
2023-04-26T03:12:19.949Z,100916.34
2023-04-26T03:14:46.581Z,100910.30
2023-04-26T03:17:13.293Z,100912.39
2023-04-26T03:19:44.168Z,100911.75
2023-04-26T03:22:12.443Z,100912.45
2023-04-26T03:24:39.393Z,100912.26
2023-04-26T03:27:06.072Z,100912.58
2023-04-26T03:29:32.800Z,100913.86
2023-04-26T03:31:59.734Z,100912.64
2023-04-26T03:34:27.431Z,100909.84
2023-04-26T03:36:54.194Z,100909.09
2023-04-26T03:39:21.049Z,100909.34
2023-04-26T03:41:47.733Z,100906.94
2023-04-26T03:44:15.293Z,100906.85
2023-04-26T03:46:42.064Z,100909.83
2023-04-26T03:49:08.857Z,100900.18
2023-04-26T03:51:35.600Z,100907.00
2023-04-26T03:54:02.402Z,100906.66
2023-04-26T03:56:29.329Z,100908.96
2023-04-26T03:58:56.875Z,100909.76
2023-04-26T04:01:23.776Z,100915.01
2023-04-26T04:03:50.749Z,100922.16
2023-04-26T04:06:17.867Z,100921.76
2023-04-26T04:08:44.506Z,100919.71
2023-04-26T04:11:11.118Z,100919.45
2023-04-26T04:13:38.736Z,100918.56
2023-04-26T04:16:05.488Z,100920.96
2023-04-26T04:18:32.152Z,100922.65
2023-04-26T04:20:58.872Z,100922.02
2023-04-26T04:23:25.580Z,100920.05
2023-04-26T04:25:52.471Z,100926.08
2023-04-26T04:28:19.105Z,100926.27
2023-04-26T04:30:46.965Z,100921.92
2023-04-26T04:33:13.596Z,100927.09
2023-04-26T04:35:41.877Z,100927.61
2023-04-26T04:38:09.118Z,100926.73
2023-04-26T04:40:35.934Z,100931.73
2023-04-26T04:43:03.312Z,100934.05
2023-04-26T04:45:30.406Z,100935.11
2023-04-26T04:47:57.282Z,100933.72
2023-04-26T04:50:24.209Z,100938.86
2023-04-26T04:52:50.914Z,100937.84
2023-04-26T04:55:17.753Z,100937.80
2023-04-26T04:57:44.884Z,100933.75
2023-04-26T05:00:12.660Z,100937.13
2023-04-26T05:02:39.554Z,100934.00
2023-04-26T05:05:07.102Z,100938.12
2023-04-26T05:07:34.234Z,100938.82
2023-04-26T05:10:01.285Z,100940.30
2023-04-26T05:12:27.897Z,100941.45
2023-04-26T05:14:54.606Z,100938.25
2023-04-26T05:17:21.393Z,100947.64
2023-04-26T05:19:48.384Z,100942.71
2023-04-26T05:22:18.594Z,100943.77
2023-04-26T05:24:47.486Z,100946.19
2023-04-26T05:27:14.658Z,100948.88
2023-04-26T05:29:41.786Z,100953.05
2023-04-26T05:32:08.679Z,100954.00
2023-04-26T05:34:36.616Z,100954.89
2023-04-26T05:37:03.595Z,100957.54
2023-04-26T05:39:30.738Z,100963.28
2023-04-26T05:41:57.464Z,100965.12
2023-04-26T05:44:24.626Z,100968.56
2023-04-26T05:46:51.188Z,100968.48
2023-04-26T05:49:17.916Z,100970.86
2023-04-26T05:51:44.903Z,100978.80
2023-04-26T05:54:11.707Z,100973.59
2023-04-26T05:56:38.546Z,100973.88
2023-04-26T05:59:05.689Z,100972.00
2023-04-26T06:01:32.387Z,100971.31
2023-04-26T06:04:00.688Z,100972.11
2023-04-26T06:06:28.281Z,100973.66
2023-04-26T06:08:55.473Z,100973.11
2023-04-26T06:11:22.287Z,100974.34
2023-04-26T06:13:49.158Z,100970.48
2023-04-26T06:16:16.384Z,100971.53
2023-04-26T06:18:43.962Z,100972.46
2023-04-26T06:21:10.667Z,100977.23
2023-04-26T06:23:37.333Z,100982.48
2023-04-26T06:26:04.066Z,100981.19
2023-04-26T06:28:30.979Z,100981.58
2023-04-26T06:30:57.773Z,100982.70
2023-04-26T06:33:24.549Z,100982.55
2023-04-26T06:35:51.641Z,100982.02
2023-04-26T06:38:18.561Z,100986.68
2023-04-26T06:40:45.105Z,100992.52
2023-04-26T06:43:11.667Z,100991.09
2023-04-26T06:45:38.176Z,100989.85
2023-04-26T06:48:05.330Z,100987.40
2023-04-26T06:50:32.046Z,100993.08
2023-04-26T06:52:58.778Z,100991.86
2023-04-26T06:55:25.462Z,101002.02
2023-04-26T06:57:52.049Z,100995.38
2023-04-26T07:00:19.024Z,100990.54
2023-04-26T07:02:46.087Z,100996.29
2023-04-26T07:05:13.823Z,100999.35
2023-04-26T07:07:40.790Z,100992.34
2023-04-26T07:10:08.596Z,100992.05
2023-04-26T07:12:35.398Z,100998.34
2023-04-26T07:15:02.784Z,100994.77
2023-04-26T07:17:29.458Z,101007.16
2023-04-26T07:19:56.493Z,101001.90
2023-04-26T07:22:23.127Z,100999.98
2023-04-26T07:24:50.465Z,101004.48
2023-04-26T07:31:07.782Z,101000.00
2023-04-26T07:33:35.677Z,101008.04
2023-04-26T07:36:02.829Z,100998.34
2023-04-26T07:38:29.279Z,101001.95
2023-04-26T07:40:56.034Z,101007.19
2023-04-26T07:43:23.282Z,101007.59
2023-04-26T07:45:50.351Z,101011.98
2023-04-26T07:48:16.990Z,101005.51
2023-04-26T07:50:43.831Z,101005.55
2023-04-26T07:53:10.529Z,101011.73
2023-04-26T07:55:37.624Z,101016.05
2023-04-26T07:58:04.501Z,101006.83
2023-04-26T08:00:31.159Z,101007.52
2023-04-26T08:02:58.126Z,101013.02
2023-04-26T08:05:25.007Z,101011.48
2023-04-26T08:07:51.799Z,101010.98
2023-04-26T08:10:18.288Z,101009.64
2023-04-26T08:12:44.897Z,101012.27
2023-04-26T08:15:12.250Z,101010.25
2023-04-26T08:17:38.949Z,101017.19
2023-04-26T08:20:06.155Z,101019.73
2023-04-26T08:22:32.674Z,101004.45
2023-04-26T08:24:59.062Z,101007.54
2023-04-26T08:27:26.018Z,101004.80
2023-04-26T08:29:52.551Z,101004.89
2023-04-26T08:32:19.088Z,101005.69
2023-04-26T08:34:45.601Z,101010.28
2023-04-26T08:37:12.950Z,101003.62
2023-04-26T08:39:39.355Z,101001.25
2023-04-26T08:42:14.376Z,101004.04
2023-04-26T08:44:45.020Z,101010.46
2023-04-26T08:47:14.354Z,101004.50
2023-04-26T08:49:44.068Z,101001.34
2023-04-26T08:52:12.776Z,101008.94
2023-04-26T08:54:40.455Z,101006.95
2023-04-26T08:57:08.277Z,101009.06
2023-04-26T08:59:37.096Z,101013.98
2023-04-26T09:02:08.645Z,101008.84
2023-04-26T09:04:36.165Z,101010.14
2023-04-26T09:07:07.251Z,101010.49
2023-04-26T09:09:42.047Z,101006.73
2023-04-26T09:12:08.916Z,101005.16
2023-04-26T09:14:35.815Z,101007.13
2023-04-26T09:17:02.437Z,101004.02
2023-04-26T09:19:37.347Z,101003.77
2023-04-26T09:22:04.409Z,101001.58
2023-04-26T09:24:52.279Z,101014.52
2023-04-26T09:27:19.320Z,101003.48
2023-04-26T09:30:15.630Z,101004.22
2023-04-26T09:32:45.375Z,101011.59
2023-04-26T09:35:35.683Z,101010.38
2023-04-26T09:38:09.741Z,101020.21
2023-04-26T09:40:41.545Z,101014.36
2023-04-26T09:43:12.274Z,101016.66
2023-04-26T09:45:55.739Z,101014.54
2023-04-26T09:48:26.651Z,101013.86
2023-04-26T09:50:55.355Z,101012.60
2023-04-26T09:53:29.020Z,101010.55
2023-04-26T09:55:57.209Z,101011.61
2023-04-26T09:58:23.928Z,101007.10
2023-04-26T10:00:52.124Z,101018.47
2023-04-26T10:03:23.197Z,101012.63
2023-04-26T10:05:50.510Z,101008.80
2023-04-26T10:08:17.282Z,101019.55
2023-04-26T10:10:45.750Z,101021.64
2023-04-26T10:13:13.100Z,101019.70
2023-04-26T10:15:41.050Z,101028.86
2023-04-26T10:18:08.727Z,101021.51
2023-04-26T10:20:40.409Z,101028.11
2023-04-26T10:23:20.936Z,101024.13
2023-04-26T10:25:49.009Z,101016.39
2023-04-26T10:28:16.191Z,101016.66
2023-04-26T10:30:59.894Z,101017.09
2023-04-26T10:33:27.298Z,101013.83
2023-04-26T10:36:13.522Z,101013.49
2023-04-26T10:38:43.069Z,101010.86
2023-04-26T10:41:33.303Z,101010.24
2023-04-26T10:44:21.043Z,101006.56
2023-04-26T10:46:53.906Z,101005.25
2023-04-26T10:49:25.614Z,100997.36
2023-04-26T10:52:13.847Z,100994.35
2023-04-26T10:54:57.325Z,100994.73
2023-04-26T10:57:48.107Z,100997.71
2023-04-26T11:00:27.952Z,101008.85
2023-04-26T11:03:03.146Z,101006.80
2023-04-26T11:05:44.173Z,101009.41
2023-04-26T11:08:17.985Z,101009.61
2023-04-26T11:10:52.033Z,101001.16
2023-04-26T11:13:21.952Z,100997.45
2023-04-26T11:15:54.160Z,100987.91
2023-04-26T11:18:21.471Z,100991.43
2023-04-26T11:20:48.149Z,100996.31
2023-04-26T11:23:15.231Z,100988.00
2023-04-26T11:25:41.958Z,100996.04
2023-04-26T11:28:08.642Z,100991.55
2023-04-26T11:30:35.489Z,100995.56
2023-04-26T11:33:05.169Z,100998.27
2023-04-26T11:35:35.981Z,100999.16
2023-04-26T11:38:07.835Z,100995.16
2023-04-26T11:40:36.627Z,101000.55
2023-04-26T11:43:08.498Z,101001.86
2023-04-26T11:45:36.805Z,100991.78
2023-04-26T11:48:05.810Z,100990.13
2023-04-26T11:50:33.545Z,100993.68
2023-04-26T11:53:02.017Z,100992.59
2023-04-26T11:55:34.186Z,100992.85
2023-04-26T11:58:01.380Z,100993.25
2023-04-26T12:00:27.971Z,100992.29
2023-04-26T12:02:55.782Z,100991.61
2023-04-26T12:05:22.742Z,100993.27
2023-04-26T12:07:57.323Z,100995.65
2023-04-26T12:10:28.676Z,100991.38
2023-04-26T12:12:59.005Z,100999.55
2023-04-26T12:15:29.397Z,101002.31
2023-04-26T12:17:57.328Z,100999.43
2023-04-26T12:20:29.274Z,100991.06
2023-04-26T12:23:10.043Z,100995.48
2023-04-26T12:25:38.379Z,100994.70
2023-04-26T12:28:08.319Z,100992.49
2023-04-26T12:30:35.166Z,100991.61
2023-04-26T12:33:15.729Z,100996.38
2023-04-26T12:35:43.923Z,100998.27
2023-04-26T12:38:11.021Z,101003.15
2023-04-26T12:40:38.728Z,101000.14
2023-04-26T12:43:05.233Z,100995.85
2023-04-26T12:45:32.091Z,101004.08
2023-04-26T12:47:58.814Z,101005.18
2023-04-26T12:50:26.114Z,100997.11
2023-04-26T12:52:52.729Z,100998.11
2023-04-26T12:55:20.070Z,101000.77
2023-04-26T12:57:46.748Z,101005.50
2023-04-26T13:00:16.005Z,101007.10
2023-04-26T13:02:42.763Z,101005.41
2023-04-26T13:05:10.158Z,101008.23
2023-04-26T13:07:39.449Z,101007.96
2023-04-26T13:10:07.554Z,101008.73
2023-04-26T13:12:34.458Z,101011.91
2023-04-26T13:15:01.434Z,101012.17
2023-04-26T13:17:28.230Z,101014.48
2023-04-26T13:19:55.190Z,101015.52
2023-04-26T13:22:22.051Z,101006.60
2023-04-26T13:24:48.609Z,101008.36
2023-04-26T13:27:15.454Z,101009.33
2023-04-26T13:29:42.423Z,101002.27
2023-04-26T13:32:09.192Z,101002.15
2023-04-26T13:34:36.277Z,101005.13
2023-04-26T13:37:04.065Z,101003.21
2023-04-26T13:39:31.311Z,101006.70
2023-04-26T13:41:59.649Z,101010.14
2023-04-26T13:44:27.008Z,101014.34
2023-04-26T13:46:56.480Z,101013.23
2023-04-26T13:49:26.195Z,101014.09
2023-04-26T13:51:53.781Z,101013.13
2023-04-26T13:54:22.282Z,101015.19
2023-04-26T13:56:49.131Z,101019.77
2023-04-26T13:59:15.980Z,101016.32
2023-04-26T14:01:42.720Z,101025.27
2023-04-26T14:04:09.454Z,101027.77
2023-04-26T14:06:36.380Z,101027.91
2023-04-26T14:09:05.638Z,101023.58
2023-04-26T14:11:32.579Z,101025.70
2023-04-26T14:13:59.412Z,101030.58
2023-04-26T14:16:26.474Z,101030.27
2023-04-26T14:18:53.288Z,101027.05
2023-04-26T14:21:20.190Z,101028.30
2023-04-26T14:23:46.896Z,101029.42
2023-04-26T14:26:13.967Z,101020.75
2023-04-26T14:28:41.199Z,101021.07
2023-04-26T14:31:08.356Z,101027.40
2023-04-26T14:33:35.454Z,101029.04
2023-04-26T14:36:02.128Z,101027.28
2023-04-26T14:38:28.697Z,101032.48
2023-04-26T14:40:55.762Z,101029.02
2023-04-26T14:43:22.426Z,101019.83
2023-04-26T14:45:48.937Z,101017.73
2023-04-26T14:48:15.986Z,101018.10
2023-04-26T14:50:42.801Z,101016.89
2023-04-26T14:53:09.900Z,101021.69
2023-04-26T14:55:36.568Z,101023.71
2023-04-26T14:58:03.954Z,101033.94
2023-04-26T15:00:30.719Z,101028.77
2023-04-26T15:02:57.456Z,101031.71
2023-04-26T15:05:24.453Z,101026.20
2023-04-26T15:07:51.926Z,101021.05
2023-04-26T15:10:18.751Z,101023.13
2023-04-26T15:12:45.999Z,101019.23
2023-04-26T15:15:12.751Z,101025.16
2023-04-26T15:17:39.489Z,101019.18
2023-04-26T15:20:06.847Z,101032.23
2023-04-26T15:22:35.698Z,101029.61
2023-04-26T15:25:04.255Z,101032.31
2023-04-26T15:27:30.868Z,101029.08
2023-04-26T15:29:57.483Z,101037.16
2023-04-26T15:32:24.410Z,101037.05
2023-04-26T15:34:51.444Z,101036.09
2023-04-26T15:37:18.124Z,101033.66
2023-04-26T15:39:44.806Z,101038.30
2023-04-26T15:42:11.458Z,101036.35
2023-04-26T15:44:38.324Z,101034.33
2023-04-26T15:47:04.971Z,101034.59
2023-04-26T15:49:31.641Z,101038.06
2023-04-26T15:51:58.279Z,101036.43
2023-04-26T15:54:26.313Z,101033.73
2023-04-26T15:56:53.010Z,101039.77
2023-04-26T15:59:20.559Z,101037.36
2023-04-26T16:01:47.669Z,101036.75
2023-04-26T16:04:14.588Z,101042.80
2023-04-26T16:06:42.081Z,101042.98
2023-04-26T16:09:23.811Z,101039.70
2023-04-26T16:11:51.245Z,101048.77
2023-04-26T16:14:17.910Z,101039.08
2023-04-26T16:16:45.947Z,101043.33
2023-04-26T16:19:12.826Z,101039.10
2023-04-26T16:21:40.473Z,101035.23
2023-04-26T16:24:09.138Z,101032.56
2023-04-26T16:26:36.432Z,101028.34
2023-04-26T16:29:04.339Z,101034.08
2023-04-26T16:31:32.331Z,101031.20
2023-04-26T16:33:59.593Z,101034.03
2023-04-26T16:36:27.231Z,101032.35
2023-04-26T16:38:54.430Z,101031.30
2023-04-26T16:41:23.064Z,101032.41
2023-04-26T16:43:52.502Z,101034.20
2023-04-26T16:46:19.485Z,101035.48
2023-04-26T16:48:46.296Z,101036.44
2023-04-26T16:51:13.295Z,101043.32
2023-04-26T16:53:39.905Z,101041.34
2023-04-26T16:56:07.175Z,101042.05
2023-04-26T16:58:33.842Z,101046.50
2023-04-26T17:01:00.797Z,101042.08
2023-04-26T17:03:28.351Z,101044.52
2023-04-26T17:05:54.948Z,101043.85
2023-04-26T17:08:22.011Z,101046.90
2023-04-26T17:10:48.730Z,101050.98
2023-04-26T17:13:15.388Z,101054.55
2023-04-26T17:15:42.243Z,101052.45
2023-04-26T17:18:09.496Z,101055.63
2023-04-26T17:20:36.541Z,101054.76
2023-04-26T17:23:04.288Z,101059.16
2023-04-26T17:25:31.172Z,101056.52
2023-04-26T17:27:57.768Z,101054.80
2023-04-26T17:30:24.345Z,101058.17
2023-04-26T17:32:51.336Z,101051.85
2023-04-26T17:35:18.100Z,101052.23
2023-04-26T17:37:49.978Z,101056.19
2023-04-26T17:40:18.127Z,101055.90
2023-04-26T17:42:45.929Z,101057.63
2023-04-26T17:45:14.041Z,101054.36
2023-04-26T17:47:41.712Z,101059.27
2023-04-26T17:50:09.406Z,101056.32
2023-04-26T17:52:36.985Z,101055.20
2023-04-26T17:55:05.846Z,101055.36
2023-04-26T17:57:32.436Z,101057.83
2023-04-26T17:59:58.929Z,101061.61
2023-04-26T18:02:25.708Z,101067.08
2023-04-26T18:04:53.438Z,101065.19
2023-04-26T18:07:20.470Z,101062.36
2023-04-26T18:09:46.963Z,101070.66
2023-04-26T18:12:13.569Z,101071.17
2023-04-26T18:14:44.744Z,101075.62
2023-04-26T18:17:13.014Z,101075.42
2023-04-26T18:19:39.904Z,101077.11
2023-04-26T18:22:07.595Z,101077.43
2023-04-26T18:24:35.388Z,101075.25
2023-04-26T18:27:02.667Z,101083.04
2023-04-26T18:29:30.012Z,101078.42
2023-04-26T18:31:56.623Z,101080.55
2023-04-26T18:34:23.500Z,101082.83
2023-04-26T18:36:50.253Z,101083.02
2023-04-26T18:39:16.966Z,101085.13
2023-04-26T18:41:43.689Z,101087.16
2023-04-26T18:44:13.406Z,101093.95
2023-04-26T18:46:41.329Z,101093.14
2023-04-26T18:49:08.954Z,101097.15
2023-04-26T18:51:36.352Z,101092.38
2023-04-26T18:54:04.641Z,101096.78
2023-04-26T18:56:31.534Z,101094.77
2023-04-26T18:58:58.393Z,101099.81
2023-04-26T19:01:25.177Z,101097.73
2023-04-26T19:03:51.929Z,101099.36
2023-04-26T19:06:18.867Z,101106.58
2023-04-26T19:08:45.345Z,101105.86
2023-04-26T19:11:12.409Z,101111.11
2023-04-26T19:13:42.851Z,101112.71
2023-04-26T19:16:10.009Z,101117.16
2023-04-26T19:18:37.427Z,101119.90
2023-04-26T19:21:04.923Z,101120.39
2023-04-26T19:23:31.611Z,101128.61
2023-04-26T19:26:14.659Z,101125.48
2023-04-26T19:28:41.590Z,101130.80
2023-04-26T19:31:08.254Z,101132.80
2023-04-26T19:33:34.764Z,101131.53
2023-04-26T19:36:01.386Z,101134.45
2023-04-26T19:38:31.492Z,101132.95
2023-04-26T19:40:58.020Z,101131.39
2023-04-26T19:43:24.640Z,101132.33
2023-04-26T19:45:51.349Z,101130.64
2023-04-26T19:48:18.155Z,101132.00
2023-04-26T19:50:46.699Z,101132.38
2023-04-26T19:53:14.856Z,101135.48
2023-04-26T19:55:42.344Z,101132.18
2023-04-26T19:58:10.765Z,101139.95
2023-04-26T20:00:38.701Z,101142.19
2023-04-26T20:03:06.074Z,101145.40
2023-04-26T20:05:33.505Z,101147.63
2023-04-26T20:08:00.403Z,101142.68
2023-04-26T20:10:30.626Z,101146.99
2023-04-26T20:12:57.154Z,101148.23
2023-04-26T20:15:24.184Z,101146.80
2023-04-26T20:17:50.913Z,101147.52
2023-04-26T20:20:17.611Z,101145.66
2023-04-26T20:22:44.327Z,101146.34
2023-04-26T20:25:10.840Z,101149.70
2023-04-26T20:27:37.541Z,101149.45
2023-04-26T20:30:04.736Z,101148.03
2023-04-26T20:32:31.560Z,101145.83
2023-04-26T20:34:58.381Z,101145.63
2023-04-26T20:37:24.892Z,101146.67
2023-04-26T20:39:51.532Z,101138.61
2023-04-26T20:42:17.962Z,101137.30
2023-04-26T20:44:44.437Z,101141.69
2023-04-26T20:47:11.067Z,101140.47
2023-04-26T20:49:37.716Z,101138.94
2023-04-26T20:52:04.635Z,101140.15
2023-04-26T20:54:31.863Z,101138.38
2023-04-26T20:56:58.550Z,101143.16
2023-04-26T20:59:25.982Z,101140.74
2023-04-26T21:01:53.729Z,101142.48
2023-04-26T21:04:20.955Z,101145.48
2023-04-26T21:06:47.691Z,101145.48
2023-04-26T21:09:14.347Z,101148.45
2023-04-26T21:11:41.364Z,101150.38
2023-04-26T21:14:09.135Z,101152.48
2023-04-26T21:16:36.034Z,101146.67
2023-04-26T21:19:03.545Z,101149.12
2023-04-26T21:21:30.261Z,101151.50
2023-04-26T21:23:57.126Z,101149.62
2023-04-26T21:26:23.637Z,101147.07
2023-04-26T21:28:50.444Z,101150.66
2023-04-26T21:31:17.197Z,101149.73
2023-04-26T21:33:43.960Z,101150.14
2023-04-26T21:36:10.629Z,101152.36
2023-04-26T21:38:37.824Z,101151.22
2023-04-26T21:41:04.503Z,101153.00
2023-04-26T21:43:31.110Z,101155.86
2023-04-26T21:45:58.592Z,101159.26
2023-04-26T21:48:26.483Z,101158.92
2023-04-26T21:50:53.321Z,101162.86
2023-04-26T21:53:19.920Z,101163.03
2023-04-26T21:55:53.674Z,101163.19
2023-04-26T21:58:21.444Z,101162.75
2023-04-26T22:00:48.516Z,101163.85
2023-04-26T22:03:15.253Z,101162.20
2023-04-26T22:05:42.178Z,101163.20
2023-04-26T22:08:08.915Z,101164.15
2023-04-26T22:10:36.485Z,101165.36
2023-04-26T22:13:03.222Z,101166.33
2023-04-26T22:15:29.819Z,101166.50
2023-04-26T22:17:56.673Z,101166.17
2023-04-26T22:20:23.373Z,101167.25
2023-04-26T22:22:49.908Z,101166.72
2023-04-26T22:25:16.473Z,101168.22
2023-04-26T22:27:43.379Z,101170.27
2023-04-26T22:30:24.050Z,101171.58
2023-04-26T22:32:57.340Z,101171.75
2023-04-26T22:35:25.162Z,101174.20
2023-04-26T22:37:52.434Z,101177.59
2023-04-26T22:40:19.218Z,101179.96
2023-04-26T22:42:46.028Z,101181.45
2023-04-26T22:45:13.290Z,101179.92
2023-04-26T22:47:40.854Z,101180.13
2023-04-26T22:50:08.138Z,101179.38
2023-04-26T22:52:35.743Z,101178.42
2023-04-26T22:55:02.483Z,101177.30
2023-04-26T22:57:31.238Z,101175.41
2023-04-26T22:59:57.969Z,101179.75
2023-04-26T23:02:24.990Z,101178.05
2023-04-26T23:04:52.043Z,101179.20
2023-04-26T23:07:18.715Z,101181.57
2023-04-26T23:09:45.655Z,101180.25
2023-04-26T23:12:17.025Z,101180.86
2023-04-26T23:14:43.526Z,101188.71
2023-04-26T23:17:11.966Z,101187.86
2023-04-26T23:19:38.744Z,101191.65
2023-04-26T23:22:05.954Z,101191.73
2023-04-26T23:24:32.625Z,101195.67
2023-04-26T23:26:59.364Z,101195.23
2023-04-26T23:29:26.095Z,101194.85
2023-04-26T23:31:53.009Z,101195.73
2023-04-26T23:34:19.627Z,101195.60
2023-04-26T23:36:46.616Z,101197.78
2023-04-26T23:39:13.624Z,101198.45
2023-04-26T23:41:40.588Z,101198.31
2023-04-26T23:44:07.294Z,101198.61
2023-04-26T23:46:34.225Z,101201.55
2023-04-26T23:49:01.092Z,101202.65
2023-04-26T23:51:28.076Z,101205.39
2023-04-26T23:53:54.929Z,101203.70
2023-04-26T23:56:21.700Z,101203.30
2023-04-26T23:58:48.325Z,101201.63
